Time;durP1;ratioP1;P1;durP2;ratioP2;P2;SDS_P1;SDS_P2;PMS_P1;PMS_P2;Temp;Humidity;BMP_temperature;BMP_pressure;BME280_temperature;BME280_humidity;BME280_pressure;Samples;Min_cycle;Max_cycle;Signal;HPM_P1;HPM_P2
2022/07/26 00:01:09;;;;;;;10.10;3.20;;;;;;;21.54;54.55;98962.89;104939;1272;71758;-74
2022/07/26 00:03:58;;;;;;;6.70;3.00;;;;;;;21.52;54.81;98955.10;105017;1271;59670;-73
2022/07/26 00:06:46;;;;;;;9.20;3.80;;;;;;;21.49;54.90;98953.86;105117;1271;59757;-73
2022/07/26 00:09:34;;;;;;;9.10;3.00;;;;;;;21.47;54.97;98953.70;105142;1271;75096;-74
2022/07/26 00:12:22;;;;;;;7.50;2.90;;;;;;;21.44;55.05;98960.76;105244;1271;69072;-74
2022/07/26 00:15:10;;;;;;;7.60;3.30;;;;;;;21.39;55.24;98956.49;105101;1271;71657;-72
2022/07/26 00:17:58;;;;;;;8.00;3.10;;;;;;;21.36;55.44;98945.23;105074;1271;59746;-75
2022/07/26 00:20:47;;;;;;;8.10;2.90;;;;;;;21.32;55.60;98943.84;104981;1271;61033;-72
2022/07/26 00:23:35;;;;;;;8.60;2.80;;;;;;;21.29;55.80;98941.58;105152;1271;74255;-75
2022/07/26 00:26:23;;;;;;;7.50;2.80;;;;;;;21.26;55.87;98941.91;105183;1273;66614;-74
2022/07/26 00:29:11;;;;;;;8.50;3.50;;;;;;;21.24;56.00;98938.53;104991;1271;73410;-71
2022/07/26 00:31:59;;;;;;;7.90;2.90;;;;;;;21.21;55.99;98932.53;105007;1271;60095;-71
2022/07/26 00:34:47;;;;;;;7.50;2.80;;;;;;;21.20;56.03;98926.26;105003;1271;59700;-75
2022/07/26 00:37:36;;;;;;;8.30;2.90;;;;;;;21.18;56.13;98927.77;104965;1271;74542;-75
2022/07/26 00:40:24;;;;;;;6.90;3.10;;;;;;;21.17;56.05;98922.83;105067;1269;66305;-75
2022/07/26 00:43:12;;;;;;;8.80;2.90;;;;;;;21.16;56.12;98926.56;105045;1271;73898;-73
2022/07/26 00:46:01;;;;;;;6.60;2.80;;;;;;;21.16;56.24;98932.82;105374;1268;59668;-73
2022/07/26 00:48:49;;;;;;;7.90;3.00;;;;;;;21.14;56.21;98930.65;104853;1271;61835;-76
2022/07/26 00:51:37;;;;;;;7.70;3.10;;;;;;;21.14;56.43;98926.48;105038;1271;74965;-73
2022/07/26 00:54:25;;;;;;;6.80;2.80;;;;;;;21.14;56.36;98928.50;104830;1271;68076;-73
2022/07/26 00:57:13;;;;;;;7.70;3.20;;;;;;;21.14;56.36;98929.20;105159;1273;73938;-73
2022/07/26 01:00:10;;;;;;;9.30;2.90;;;;;;;21.15;56.31;98926.33;105354;1273;59681;-73
2022/07/26 01:02:59;;;;;;;7.60;2.70;;;;;;;21.17;56.25;98924.16;104845;1271;59984;-72
2022/07/26 01:05:47;;;;;;;8.50;2.90;;;;;;;21.18;56.16;98918.02;104949;1271;73670;-74
2022/07/26 01:08:36;;;;;;;8.50;3.30;;;;;;;21.18;56.20;98916.52;105188;1271;68136;-75
2022/07/26 01:11:24;;;;;;;10.00;3.20;;;;;;;21.19;56.31;98919.56;105014;1271;71902;-73
2022/07/26 01:14:12;;;;;;;7.20;2.60;;;;;;;21.17;56.37;98917.20;105104;1271;59678;-74
2022/07/26 01:17:00;;;;;;;8.20;3.10;;;;;;;21.16;56.57;98913.34;105079;1271;59936;-74
2022/07/26 01:19:48;;;;;;;8.90;3.50;;;;;;;21.13;56.69;98914.89;105209;1271;71493;-74
2022/07/26 01:22:37;;;;;;;7.50;3.30;;;;;;;21.11;56.81;98913.95;104984;1271;67816;-75
2022/07/26 01:25:31;;;;;;;6.20;2.70;;;;;;;21.09;56.90;98916.24;105189;1271;71903;-76
2022/07/26 01:28:37;;;;;;;7.10;2.90;;;;;;;21.08;57.00;98920.54;104959;1271;59699;-75
2022/07/26 01:31:25;;;;;;;6.80;3.10;;;;;;;21.05;57.07;98916.36;104948;1273;61114;-72
2022/07/26 01:34:13;;;;;;;7.00;3.00;;;;;;;21.03;57.36;98907.70;105045;1271;73524;-74
2022/07/26 01:37:04;;;;;;;7.50;3.10;;;;;;;21.01;57.25;98907.20;105040;1271;68008;-74
2022/07/26 01:39:52;;;;;;;7.60;3.30;;;;;;;20.98;57.44;98900.83;105254;1271;72916;-75
2022/07/26 01:42:41;;;;;;;7.50;3.10;;;;;;;20.94;57.51;98902.05;104876;1271;59835;-73
2022/07/26 01:45:30;;;;;;;8.30;3.10;;;;;;;20.90;57.48;98911.80;105038;1271;60484;-72
2022/07/26 01:48:18;;;;;;;7.40;3.20;;;;;;;20.86;57.77;98918.30;105390;1271;73253;-74
2022/07/26 01:51:06;;;;;;;7.50;3.30;;;;;;;20.82;57.98;98916.08;105035;1271;68897;-74
2022/07/26 01:53:54;;;;;;;7.10;3.00;;;;;;;20.78;58.15;98911.05;105119;1271;74427;-74
2022/07/26 01:56:42;;;;;;;7.20;3.20;;;;;;;20.74;58.23;98905.87;105098;1271;59771;-74
2022/07/26 01:59:30;;;;;;;8.10;2.90;;;;;;;20.71;58.37;98905.55;105183;1271;59689;-73
2022/07/26 02:02:20;;;;;;;8.70;3.30;;;;;;;20.69;58.54;98906.43;105089;1271;74753;-74
2022/07/26 02:05:08;;;;;;;6.90;3.20;;;;;;;20.67;58.68;98908.83;105995;1271;67796;-73
2022/07/26 02:07:57;;;;;;;7.20;3.30;;;;;;;20.65;58.84;98910.66;105681;1271;73421;-72
2022/07/26 02:11:01;;;;;;;11.80;3.30;;;;;;;20.62;58.98;98906.13;105655;1271;59780;-75
2022/07/26 02:13:50;;;;;;;8.40;3.20;;;;;;;20.61;59.10;98901.11;105241;1273;62070;-72
2022/07/26 02:16:39;;;;;;;8.50;2.90;;;;;;;20.59;59.07;98906.31;106077;1271;73682;-74
2022/07/26 02:19:29;;;;;;;8.80;3.30;;;;;;;20.58;59.19;98900.74;105203;1271;67008;-72
2022/07/26 02:22:18;;;;;;;6.50;2.90;;;;;;;20.57;59.36;98894.59;105025;1271;72779;-73
2022/07/26 02:25:06;;;;;;;8.00;3.20;;;;;;;20.55;59.40;98894.27;105067;1271;59647;-74
2022/07/26 02:27:55;;;;;;;8.40;3.50;;;;;;;20.52;59.52;98897.17;104924;1271;60886;-73
2022/07/26 02:30:44;;;;;;;7.60;3.10;;;;;;;20.50;59.71;98902.89;105137;1271;74746;-74
2022/07/26 02:33:33;;;;;;;6.80;3.00;;;;;;;20.49;59.83;98911.88;105090;1271;68673;-73
2022/07/26 02:36:21;;;;;;;7.40;2.80;;;;;;;20.49;59.86;98921.13;105178;1271;71540;-73
2022/07/26 02:39:09;;;;;;;7.40;3.30;;;;;;;20.47;59.80;98925.66;105005;1271;59670;-73
2022/07/26 02:42:00;;;;;;;7.10;3.40;;;;;;;20.47;60.01;98931.66;105153;1271;60454;-73
2022/07/26 02:44:48;;;;;;;6.40;2.90;;;;;;;20.45;60.71;98942.18;104980;1271;73955;-73
2022/07/26 02:47:46;;;;;;;10.50;3.60;;;;;;;20.43;60.98;98949.88;105035;1271;68517;-73
2022/07/26 02:50:34;;;;;;;10.30;3.40;;;;;;;20.38;61.65;98956.33;104859;1274;73337;-72
2022/07/26 02:53:22;;;;;;;8.30;3.30;;;;;;;20.36;61.71;98955.04;104919;1274;59355;-72
2022/07/26 02:56:10;;;;;;;9.00;3.60;;;;;;;20.33;61.88;98954.20;105060;1271;61453;-73
2022/07/26 02:58:58;;;;;;;7.80;3.40;;;;;;;20.31;61.85;98949.85;105020;1271;72181;-72
2022/07/26 03:01:46;;;;;;;8.20;3.50;;;;;;;20.29;61.81;98952.80;105043;1271;69588;-73
2022/07/26 03:04:34;;;;;;;8.30;3.40;;;;;;;20.27;61.90;98961.58;105327;1271;74468;-73
2022/07/26 03:07:22;;;;;;;10.70;3.30;;;;;;;20.25;61.66;98958.50;105008;1271;59855;-72
2022/07/26 03:10:10;;;;;;;9.70;3.70;;;;;;;20.25;61.37;98952.05;104978;1271;60699;-72
2022/07/26 03:12:58;;;;;;;9.90;3.60;;;;;;;20.25;61.31;98949.56;104998;1271;73674;-74
2022/07/26 03:15:46;;;;;;;10.40;3.50;;;;;;;20.25;61.25;98943.75;105100;1271;68330;-73
2022/07/26 03:18:34;;;;;;;8.90;3.50;;;;;;;20.25;61.19;98945.73;105043;1273;72944;-73
2022/07/26 03:21:23;;;;;;;8.00;3.60;;;;;;;20.25;61.04;98939.75;104963;1273;60106;-75
2022/07/26 03:24:11;;;;;;;7.40;3.70;;;;;;;20.25;61.07;98934.31;105130;1271;61000;-74
2022/07/26 03:26:59;;;;;;;8.30;3.70;;;;;;;20.26;61.41;98944.75;105114;1271;73449;-75
2022/07/26 03:29:47;;;;;;;8.90;3.60;;;;;;;20.25;61.50;98956.50;105098;1271;66798;-74
2022/07/26 03:32:35;;;;;;;8.50;4.00;;;;;;;20.24;61.96;98964.90;105201;1271;73301;-74
2022/07/26 03:35:24;;;;;;;9.40;4.30;;;;;;;20.24;62.50;98975.74;105356;1271;59764;-73
2022/07/26 03:38:12;;;;;;;8.30;4.20;;;;;;;20.24;62.94;98989.87;104934;1274;61018;-73
2022/07/26 03:40:59;;;;;;;10.10;4.60;;;;;;;20.22;63.67;98985.89;105053;1268;72754;-73
2022/07/26 03:43:47;;;;;;;8.70;4.10;;;;;;;20.20;65.69;98979.41;105079;1271;68021;-74
2022/07/26 03:46:35;;;;;;;11.90;4.40;;;;;;;20.12;67.49;98987.30;105000;1271;72607;-72
2022/07/26 03:49:25;;;;;;;11.10;4.60;;;;;;;20.00;68.87;98995.69;104981;1271;59897;-73
2022/07/26 03:52:12;;;;;;;11.50;5.20;;;;;;;19.96;70.75;99000.59;105211;1271;61555;-74
2022/07/26 03:56:27;;;;;;;10.20;4.30;;;;;;;19.87;72.07;98997.45;105257;1271;74654;-72
2022/07/26 03:58:09;;;;;;;9.00;4.80;;;;;;;19.76;73.78;98994.39;105197;1273;68093;-74
2022/07/26 04:00:59;;;;;;;10.50;4.60;;;;;;;19.71;75.30;99001.06;104972;1273;74511;-74
2022/07/26 04:03:47;;;;;;;9.60;4.90;;;;;;;19.64;75.74;99013.34;104892;1273;59618;-74
2022/07/26 04:06:38;;;;;;;10.90;5.00;;;;;;;19.57;76.33;99014.07;105294;1271;60949;-76
2022/07/26 04:09:26;;;;;;;11.90;5.20;;;;;;;19.52;77.53;99014.09;105615;1271;73234;-74
2022/07/26 04:12:14;;;;;;;11.00;4.90;;;;;;;19.47;78.10;99007.52;105351;1271;69905;-76
2022/07/26 04:15:05;;;;;;;10.40;5.00;;;;;;;19.46;78.46;98996.80;105148;1271;71656;-76
2022/07/26 04:17:53;;;;;;;10.20;4.40;;;;;;;19.46;79.15;98972.45;105018;1271;59788;-78
2022/07/26 04:20:42;;;;;;;11.60;5.20;;;;;;;19.47;79.06;98971.67;105042;1273;60985;-75
2022/07/26 04:23:30;;;;;;;10.90;5.00;;;;;;;19.48;79.59;98968.63;105001;1271;73205;-76
2022/07/26 04:26:20;;;;;;;10.00;5.60;;;;;;;19.43;79.65;98973.06;105425;1271;66833;-76
2022/07/26 04:29:08;;;;;;;10.80;5.50;;;;;;;19.44;80.04;98992.95;105073;1271;72934;-77
2022/07/26 04:31:58;;;;;;;11.10;5.60;;;;;;;19.38;80.70;99009.81;105263;1271;59900;-78
2022/07/26 04:34:46;;;;;;;13.60;5.50;;;;;;;19.35;81.54;99021.96;105119;1271;59564;-75
2022/07/26 04:37:41;;;;;;;11.80;5.40;;;;;;;19.32;82.44;99030.39;105203;1271;73328;-75
2022/07/26 04:40:32;;;;;;;12.20;5.70;;;;;;;19.25;84.24;99029.40;105260;1271;67005;-73
2022/07/26 04:43:20;;;;;;;13.00;6.70;;;;;;;19.20;84.91;99041.70;105236;1273;71842;-73
2022/07/26 04:46:08;;;;;;;11.70;6.20;;;;;;;19.17;85.54;99040.45;105040;1271;60208;-75
2022/07/26 04:48:56;;;;;;;10.90;6.10;;;;;;;19.16;86.20;99035.75;105094;1271;60472;-75
2022/07/26 04:51:44;;;;;;;10.00;6.10;;;;;;;19.17;86.84;99040.48;105074;1271;73033;-75
2022/07/26 04:54:32;;;;;;;12.60;6.70;;;;;;;19.17;87.08;99051.05;105140;1271;69078;-74
2022/07/26 04:57:20;;;;;;;11.80;6.50;;;;;;;19.15;87.56;99054.57;105279;1271;72859;-72
2022/07/26 05:00:12;;;;;;;13.00;6.60;;;;;;;19.11;88.22;99064.42;104948;1271;59657;-72
2022/07/26 05:03:09;;;;;;;10.90;6.40;;;;;;;19.07;88.52;99070.67;104937;1271;60896;-72
2022/07/26 05:05:57;;;;;;;13.00;5.90;;;;;;;19.03;89.82;99064.18;104762;1271;74367;-72
2022/07/26 05:08:45;;;;;;;12.20;5.60;;;;;;;19.00;89.66;99048.64;105060;1273;66775;-73
2022/07/26 05:11:33;;;;;;;12.70;6.30;;;;;;;18.98;90.66;99050.26;104967;1271;74542;-73
2022/07/26 05:14:21;;;;;;;11.20;6.10;;;;;;;18.94;91.21;99047.73;104942;1271;59663;-74
2022/07/26 05:17:11;;;;;;;10.20;5.10;;;;;;;18.89;91.51;99036.88;104977;1271;60540;-73
2022/07/26 05:20:10;;;;;;;10.90;4.90;;;;;;;18.81;92.51;99039.87;104968;1271;73836;-72
2022/07/26 05:22:58;;;;;;;10.10;5.40;;;;;;;18.74;93.18;99027.64;104957;1271;67401;-73
2022/07/26 05:25:47;;;;;;;9.60;4.70;;;;;;;18.71;93.04;99010.70;104862;1271;71894;-71
2022/07/26 05:28:38;;;;;;;9.70;5.20;;;;;;;18.69;93.48;99009.70;104965;1271;60527;-72
2022/07/26 05:31:28;;;;;;;13.00;5.30;;;;;;;18.67;93.83;99023.91;105332;1271;59682;-70
2022/07/26 05:34:16;;;;;;;10.50;4.80;;;;;;;18.64;93.97;99040.02;106940;1271;72933;-71
2022/07/26 05:37:05;;;;;;;11.60;4.00;;;;;;;18.62;94.65;99043.66;106042;1271;68632;-74
2022/07/26 05:39:53;;;;;;;7.50;3.20;;;;;;;18.59;94.40;99039.44;106456;1271;73355;-76
2022/07/26 05:42:41;;;;;;;8.20;4.20;;;;;;;18.57;94.38;99045.48;105733;1271;59802;-74
2022/07/26 05:45:29;;;;;;;9.50;5.00;;;;;;;18.54;93.92;99053.74;105302;1274;60656;-75
2022/07/26 05:48:16;;;;;;;11.00;6.30;;;;;;;18.49;93.68;99058.06;105845;1271;74301;-76
2022/07/26 05:51:07;;;;;;;9.90;3.70;;;;;;;18.49;93.37;99072.85;105293;1271;67883;-75
2022/07/26 05:53:56;;;;;;;8.80;4.00;;;;;;;18.48;93.33;99079.23;105112;1271;71176;-72
2022/07/26 05:56:43;;;;;;;8.30;3.40;;;;;;;18.46;93.26;99083.80;105075;1271;60236;-74
2022/07/26 05:59:32;;;;;;;8.90;3.40;;;;;;;18.44;92.84;99088.57;105373;1271;60575;-74
2022/07/26 06:02:19;;;;;;;8.20;3.30;;;;;;;18.42;93.23;99094.73;105227;1271;71561;-78
2022/07/26 06:05:08;;;;;;;9.90;3.80;;;;;;;18.39;93.29;99093.69;105487;1271;65960;-74
2022/07/26 06:07:55;;;;;;;8.70;3.70;;;;;;;18.37;93.00;99083.90;105854;1271;71663;-76
2022/07/26 06:10:45;;;;;;;7.00;3.10;;;;;;;18.40;93.61;99082.23;105846;1273;59833;-75
2022/07/26 06:13:34;;;;;;;9.00;3.60;;;;;;;18.45;93.20;99081.65;105461;1271;62433;-77
2022/07/26 06:16:22;;;;;;;8.50;3.90;;;;;;;18.47;93.42;99084.98;105356;1273;73527;-76
2022/07/26 06:19:10;;;;;;;8.30;3.70;;;;;;;18.49;93.43;99084.88;105448;1273;68181;-75
2022/07/26 06:22:01;;;;;;;11.70;5.10;;;;;;;18.49;92.98;99090.84;105270;1271;71669;-75
2022/07/26 06:24:48;;;;;;;7.10;3.40;;;;;;;18.45;92.80;99089.31;105347;1271;59697;-75
2022/07/26 06:27:37;;;;;;;9.70;3.10;;;;;;;18.44;92.97;99085.03;105262;1271;61288;-73
2022/07/26 06:30:25;;;;;;;7.20;2.70;;;;;;;18.42;92.59;99083.08;105610;1271;74645;-72
2022/07/26 06:33:13;;;;;;;9.10;2.90;;;;;;;18.42;92.81;99099.48;105708;1271;69476;-74
2022/07/26 06:36:01;;;;;;;9.20;2.80;;;;;;;18.43;92.22;99116.02;105410;1271;71653;-74
2022/07/26 06:38:49;;;;;;;7.90;2.90;;;;;;;18.45;92.29;99121.11;105344;1271;59763;-77
2022/07/26 06:41:37;;;;;;;8.10;2.90;;;;;;;18.43;91.68;99121.00;105179;1271;62010;-75
2022/07/26 06:44:25;;;;;;;8.70;2.80;;;;;;;18.39;91.90;99121.88;105146;1271;73241;-76
2022/07/26 06:47:13;;;;;;;8.30;2.90;;;;;;;18.39;92.01;99116.32;105242;1271;68665;-74
2022/07/26 06:50:03;;;;;;;11.80;3.30;;;;;;;18.42;91.77;99119.38;105127;1271;73405;-75
2022/07/26 06:52:51;;;;;;;8.60;3.40;;;;;;;18.44;91.53;99125.35;105597;1271;59566;-78
2022/07/26 06:55:40;;;;;;;8.30;2.90;;;;;;;18.47;90.91;99127.83;106423;1271;60950;-76
2022/07/26 06:58:30;;;;;;;9.90;2.90;;;;;;;18.52;90.64;99135.13;105773;1271;73376;-76
2022/07/26 07:01:18;;;;;;;10.80;3.10;;;;;;;18.57;90.17;99143.63;105711;1271;68020;-77
2022/07/26 07:04:31;;;;;;;8.30;3.00;;;;;;;18.59;89.86;99148.11;105477;1271;74439;-75
2022/07/26 07:07:19;;;;;;;9.80;2.90;;;;;;;18.63;89.42;99145.96;105454;1271;61962;-76
2022/07/26 07:10:09;;;;;;;8.00;2.70;;;;;;;18.67;89.41;99148.90;105271;1271;60516;-78
2022/07/26 07:12:59;;;;;;;8.30;2.80;;;;;;;18.70;88.95;99137.55;105248;1273;73767;-78
2022/07/26 07:15:47;;;;;;;8.10;2.90;;;;;;;18.76;88.76;99121.52;105314;1273;66766;-75
2022/07/26 07:18:34;;;;;;;7.00;2.30;;;;;;;18.84;88.71;99126.06;105155;1273;73741;-77
2022/07/26 07:21:22;;;;;;;8.10;2.80;;;;;;;18.93;88.45;99142.08;105090;1272;59630;-77
2022/07/26 07:24:10;;;;;;;8.60;2.80;;;;;;;19.00;88.21;99144.91;105504;1273;60565;-77
2022/07/26 07:27:00;;;;;;;8.30;2.90;;;;;;;19.08;87.88;99151.85;105157;1273;72155;-78
2022/07/26 07:29:48;;;;;;;12.60;5.50;;;;;;;19.11;88.04;99162.91;105329;1273;68053;-76
2022/07/26 07:32:39;;;;;;;10.20;3.00;;;;;;;19.05;86.97;99167.06;105367;1273;73636;-78
2022/07/26 07:35:26;;;;;;;8.60;3.70;;;;;;;19.04;86.79;99161.00;105541;1273;59657;-77
2022/07/26 07:38:19;;;;;;;9.90;4.40;;;;;;;19.00;86.80;99169.38;105412;1273;60526;-79
2022/07/26 07:41:08;;;;;;;9.20;2.90;;;;;;;19.00;86.44;99178.64;105315;1273;73251;-76
2022/07/26 07:43:57;;;;;;;9.80;4.00;;;;;;;18.99;86.40;99174.64;105653;1273;68178;-78
2022/07/26 07:46:45;;;;;;;8.20;2.80;;;;;;;19.01;86.49;99181.83;105584;1273;72025;-76
2022/07/26 07:49:33;;;;;;;8.50;3.00;;;;;;;19.17;86.45;99177.14;105164;1273;59794;-78
2022/07/26 07:52:22;;;;;;;8.50;3.20;;;;;;;19.47;85.49;99175.80;105274;1273;60361;-78
2022/07/26 07:55:10;;;;;;;9.70;3.10;;;;;;;19.70;84.22;99171.17;105566;1273;73232;-79
2022/07/26 07:58:19;;;;;;;10.60;3.10;;;;;;;19.70;83.62;99150.03;105969;1273;68757;-79
2022/07/26 08:01:07;;;;;;;10.40;3.00;;;;;;;20.05;82.52;99172.80;105937;1273;72856;-78
2022/07/26 08:03:59;;;;;;;10.20;3.00;;;;;;;20.39;80.75;99164.53;105872;1273;59772;-76
2022/07/26 08:06:47;;;;;;;8.70;2.60;;;;;;;20.69;78.84;99164.16;106314;1273;59572;-77
2022/07/26 08:09:38;;;;;;;8.50;2.40;;;;;;;20.90;77.38;99169.84;105746;1273;70686;-77
2022/07/26 08:12:30;;;;;;;6.70;2.30;;;;;;;21.08;76.00;99173.98;106490;1273;69248;-78
2022/07/26 08:15:17;;;;;;;11.80;4.40;;;;;;;21.23;74.92;99171.93;106078;1271;73372;-76
2022/07/26 08:18:08;;;;;;;9.30;2.80;;;;;;;21.57;74.04;99167.97;105303;1271;59993;-79
2022/07/26 08:21:03;;;;;;;6.80;2.20;;;;;;;21.87;71.21;99163.90;105427;1271;61068;-78
2022/07/26 08:23:51;;;;;;;7.30;2.40;;;;;;;22.04;68.98;99163.29;105242;1271;72533;-78
2022/07/26 08:26:39;;;;;;;10.10;2.50;;;;;;;22.05;68.80;99168.10;105421;1271;68520;-78
2022/07/26 08:29:27;;;;;;;8.10;2.70;;;;;;;22.09;67.93;99167.13;105379;1274;72181;-77
2022/07/26 08:32:15;;;;;;;9.70;2.30;;;;;;;22.15;67.81;99173.57;105703;1271;59719;-78
2022/07/26 08:35:04;;;;;;;9.10;2.20;;;;;;;22.32;67.43;99180.60;105726;1271;62385;-79
2022/07/26 08:38:06;;;;;;;7.80;2.20;;;;;;;23.12;64.40;99175.73;105390;1271;73311;-79
2022/07/26 08:40:54;;;;;;;7.60;2.00;;;;;;;23.87;61.14;99176.24;105263;1271;66275;-77
2022/07/26 08:43:43;;;;;;;7.30;2.00;;;;;;;25.55;57.72;99171.62;105441;1272;72318;-80
2022/07/26 08:46:41;;;;;;;7.20;1.80;;;;;;;26.94;52.40;99168.54;105820;1271;59702;-79
2022/07/26 08:49:29;;;;;;;8.70;2.00;;;;;;;27.23;49.58;99164.13;106061;1271;60941;-77
2022/07/26 08:52:18;;;;;;;9.10;1.90;;;;;;;28.04;45.69;99164.05;106026;1271;71966;-77
2022/07/26 08:55:08;;;;;;;7.20;1.70;;;;;;;28.83;44.82;99157.11;106600;1271;68632;-78
2022/07/26 08:57:56;;;;;;;8.70;1.80;;;;;;;29.76;43.27;99152.39;107157;1271;73360;-79
2022/07/26 09:00:44;;;;;;;6.50;1.60;;;;;;;30.08;41.18;99157.02;107038;1271;59799;-78
2022/07/26 09:03:32;;;;;;;6.70;1.50;;;;;;;30.52;39.49;99155.94;107796;1271;61078;-79
2022/07/26 09:06:22;;;;;;;8.60;1.80;;;;;;;31.03;38.12;99155.74;107229;1271;71960;-78
2022/07/26 09:09:15;;;;;;;7.70;1.50;;;;;;;31.29;37.13;99166.38;106759;1271;66410;-77
2022/07/26 09:12:16;;;;;;;8.00;1.70;;;;;;;31.69;36.56;99162.80;106171;1271;71794;-78
2022/07/26 09:15:16;;;;;;;6.40;1.50;;;;;;;31.84;35.28;99167.15;106256;1271;59636;-80
2022/07/26 09:18:04;;;;;;;7.70;1.80;;;;;;;32.64;34.95;99172.25;106453;1271;59558;-77
2022/07/26 09:20:52;;;;;;;5.60;1.40;;;;;;;33.15;33.84;99163.23;106581;1271;73713;-78
2022/07/26 09:23:41;;;;;;;5.90;1.50;;;;;;;32.84;33.13;99170.73;106592;1271;66940;-78
2022/07/26 09:26:29;;;;;;;5.80;1.40;;;;;;;33.26;31.48;99172.55;106404;1271;70653;-80
2022/07/26 09:29:17;;;;;;;7.70;1.40;;;;;;;33.72;31.61;99175.09;106174;1273;59681;-79
2022/07/26 09:32:17;;;;;;;7.80;1.50;;;;;;;33.67;30.99;99169.02;106260;1271;59666;-79
2022/07/26 09:35:12;;;;;;;7.30;1.40;;;;;;;33.70;30.93;99167.66;105668;1271;71842;-80
2022/07/26 09:38:20;;;;;;;6.80;1.60;;;;;;;33.94;30.82;99165.66;105719;1271;68762;-80
2022/07/26 09:41:23;;;;;;;5.60;1.20;;;;;;;34.01;30.83;99166.34;105557;1271;73412;-82
2022/07/26 09:44:25;;;;;;;8.00;1.40;;;;;;;33.68;31.45;99168.95;105429;1271;61351;-79
2022/07/26 09:47:13;;;;;;;7.40;1.50;;;;;;;33.02;31.39;99175.74;105419;1271;60545;-79
2022/07/26 09:50:12;;;;;;;7.10;1.40;;;;;;;33.47;31.56;99170.91;105331;1271;71676;-80
2022/07/26 09:53:09;;;;;;;8.40;1.60;;;;;;;33.31;31.50;99171.41;105653;1271;68684;-79
2022/07/26 09:55:57;;;;;;;6.40;1.40;;;;;;;33.45;31.40;99177.16;105851;1271;74977;-81
2022/07/26 09:58:46;;;;;;;7.20;1.90;;;;;;;33.12;31.54;99184.80;105824;1273;59873;-78
2022/07/26 10:01:35;;;;;;;6.00;1.30;;;;;;;32.67;32.20;99185.39;105595;1271;61051;-81
2022/07/26 10:04:24;;;;;;;7.30;1.40;;;;;;;32.76;31.91;99188.75;106523;1271;71793;-80
2022/07/26 10:07:13;;;;;;;6.50;1.40;;;;;;;33.04;31.19;99181.85;106060;1271;68006;-80
2022/07/26 10:10:13;;;;;;;5.80;1.30;;;;;;;33.36;30.63;99179.67;106190;1271;74940;-80
2022/07/26 10:13:02;;;;;;;5.90;1.40;;;;;;;33.18;30.24;99170.96;106114;1271;59695;-80
2022/07/26 10:15:50;;;;;;;4.90;1.20;;;;;;;33.55;29.87;99174.29;106166;1271;62053;-79
2022/07/26 10:18:39;;;;;;;5.60;1.10;;;;;;;33.82;29.21;99170.23;105903;1271;71982;-77
2022/07/26 10:21:29;;;;;;;6.60;1.20;;;;;;;34.10;29.02;99177.92;105836;1271;69507;-79
2022/07/26 10:24:25;;;;;;;6.20;1.40;;;;;;;34.44;28.67;99181.71;106403;1271;74130;-81
2022/07/26 10:27:40;;;;;;;6.10;1.50;;;;;;;33.74;28.96;99187.53;106858;1271;59855;-78
2022/07/26 10:30:28;;;;;;;7.30;2.10;;;;;;;33.48;29.76;99190.53;106498;1271;60956;-76
2022/07/26 10:33:24;;;;;;;8.30;1.80;;;;;;;32.90;30.09;99192.04;106383;1271;73866;-79
2022/07/26 10:36:38;;;;;;;6.30;1.80;;;;;;;32.97;30.33;99198.38;106597;1271;67621;-80
2022/07/26 10:39:26;;;;;;;7.30;1.30;;;;;;;32.45;30.81;99206.02;105820;1271;73138;-79
2022/07/26 10:42:14;;;;;;;6.50;1.20;;;;;;;32.08;31.37;99207.04;106341;1271;59752;-80
2022/07/26 10:45:22;;;;;;;6.60;1.30;;;;;;;32.25;30.95;99195.36;106528;1273;60467;-80
2022/07/26 10:48:12;;;;;;;5.10;1.20;;;;;;;32.34;30.54;99201.86;106589;1271;71954;-81
2022/07/26 10:51:28;;;;;;;6.70;1.40;;;;;;;32.87;29.98;99202.16;106584;1271;66745;-80
2022/07/26 10:54:16;;;;;;;7.00;1.50;;;;;;;33.17;29.66;99208.61;106229;1271;71617;-80
2022/07/26 10:57:05;;;;;;;7.40;1.60;;;;;;;33.18;29.58;99205.64;106278;1273;59686;-81
2022/07/26 10:59:57;;;;;;;5.50;1.30;;;;;;;32.80;30.34;99210.52;106053;1271;59658;-80
2022/07/26 11:02:55;;;;;;;6.40;1.20;;;;;;;31.70;31.83;99219.04;106058;1271;75083;-80
2022/07/26 11:05:44;;;;;;;7.30;2.00;;;;;;;30.21;34.15;99228.84;105946;1271;68441;-81
2022/07/26 11:08:38;;;;;;;6.80;1.50;;;;;;;29.10;36.88;99225.58;105675;1271;73363;-80
2022/07/26 11:11:32;;;;;;;6.00;1.40;;;;;;;28.22;38.38;99232.84;106224;1271;60172;-80
2022/07/26 11:14:20;;;;;;;7.50;1.70;;;;;;;27.43;40.14;99235.50;106018;1271;59785;-80
2022/07/26 11:17:31;;;;;;;6.60;1.50;;;;;;;27.51;40.17;99236.11;105301;1271;74619;-75
2022/07/26 11:20:25;;;;;;;5.60;1.40;;;;;;;28.03;39.65;99231.20;105234;1271;68167;-75
2022/07/26 11:23:47;;;;;;;5.00;1.20;;;;;;;28.26;38.46;99232.59;105257;1271;72881;-77
2022/07/26 11:26:46;;;;;;;6.00;1.40;;;;;;;28.65;37.57;99235.30;105106;1271;59650;-75
2022/07/26 11:29:36;;;;;;;6.70;1.00;;;;;;;29.02;36.80;99233.84;105278;1271;61037;-75
2022/07/26 11:32:28;;;;;;;8.00;1.30;;;;;;;29.28;36.17;99232.95;105407;1271;73204;-76
2022/07/26 11:35:16;;;;;;;6.60;1.20;;;;;;;29.91;35.88;99237.40;105381;1271;65918;-76
2022/07/26 11:38:07;;;;;;;6.20;1.30;;;;;;;30.26;35.04;99233.77;105181;1271;72957;-75
2022/07/26 11:41:01;;;;;;;7.80;1.50;;;;;;;30.28;34.75;99227.63;105168;1271;59646;-75
2022/07/26 11:43:52;;;;;;;5.90;1.30;;;;;;;29.94;35.30;99226.73;105281;1271;62034;-75
2022/07/26 11:46:46;;;;;;;6.70;1.80;;;;;;;29.30;35.90;99229.30;105220;1271;73575;-74
2022/07/26 11:49:34;;;;;;;7.20;2.20;;;;;;;28.75;37.19;99238.35;105494;1271;65718;-78
2022/07/26 11:52:44;;;;;;;6.10;1.30;;;;;;;28.22;38.25;99239.58;105433;1271;72881;-76
2022/07/26 11:55:32;;;;;;;5.10;1.10;;;;;;;28.22;38.39;99232.81;105361;1271;59572;-75
2022/07/26 11:58:20;;;;;;;6.00;1.30;;;;;;;28.15;37.78;99241.80;105047;1273;61794;-76
2022/07/26 12:01:11;;;;;;;6.10;1.20;;;;;;;27.91;38.27;99243.34;105182;1274;73325;-73
2022/07/26 12:03:59;;;;;;;5.20;1.20;;;;;;;27.80;37.96;99239.37;105203;1271;69314;-76
2022/07/26 12:06:49;;;;;;;5.70;1.10;;;;;;;27.59;37.66;99237.06;105298;1271;71908;-73
2022/07/26 12:09:40;;;;;;;5.80;1.20;;;;;;;27.34;37.61;99239.67;105152;1272;59747;-76
2022/07/26 12:12:32;;;;;;;6.60;1.20;;;;;;;27.05;38.70;99242.00;105195;1271;59669;-75
2022/07/26 12:15:19;;;;;;;6.20;1.00;;;;;;;26.73;39.50;99248.36;105236;1271;73346;-75
2022/07/26 12:18:07;;;;;;;5.00;1.20;;;;;;;26.45;39.99;99246.30;105256;1271;69623;-73
2022/07/26 12:21:07;;;;;;;5.40;1.20;;;;;;;26.37;40.59;99241.31;105160;1271;73974;-76
2022/07/26 12:24:02;;;;;;;8.00;1.60;;;;;;;26.35;40.56;99237.41;105471;1271;59911;-75
2022/07/26 12:27:22;;;;;;;6.40;1.30;;;;;;;26.28;40.04;99237.75;105299;1271;59741;-77
2022/07/26 12:30:10;;;;;;;6.10;1.30;;;;;;;26.01;40.17;99240.53;105673;1271;73688;-74
2022/07/26 12:33:00;;;;;;;5.30;1.20;;;;;;;25.98;41.18;99248.00;106419;1271;68587;-72
2022/07/26 12:35:49;;;;;;;5.40;1.10;;;;;;;26.01;41.94;99249.84;106194;1271;70287;-75
2022/07/26 12:38:39;;;;;;;7.20;1.30;;;;;;;26.12;42.37;99243.71;105809;1271;59375;-74
2022/07/26 12:41:38;;;;;;;8.20;2.40;;;;;;;26.24;41.70;99247.76;105448;1271;60593;-76
2022/07/26 12:44:29;;;;;;;6.60;1.50;;;;;;;26.25;41.12;99243.79;105006;1274;71834;-74
2022/07/26 12:47:17;;;;;;;5.70;1.10;;;;;;;26.23;40.62;99248.27;105119;1271;69568;-75
2022/07/26 12:50:07;;;;;;;5.70;1.20;;;;;;;26.08;40.79;99246.14;105050;1271;72967;-77
2022/07/26 12:53:03;;;;;;;7.40;1.50;;;;;;;25.87;41.53;99247.20;105461;1271;59685;-74
2022/07/26 12:55:51;;;;;;;6.70;1.60;;;;;;;25.64;41.87;99249.86;105577;1271;60455;-77
2022/07/26 12:58:39;;;;;;;8.20;1.90;;;;;;;25.63;42.25;99246.02;105477;1271;72031;-77
2022/07/26 13:01:30;;;;;;;6.40;1.70;;;;;;;25.82;41.91;99244.58;105189;1271;66534;-75
2022/07/26 13:04:18;;;;;;;6.20;1.30;;;;;;;26.07;41.69;99242.68;105274;1271;70986;-76
2022/07/26 13:07:06;;;;;;;6.20;1.20;;;;;;;26.13;41.12;99241.34;105185;1272;59641;-77
2022/07/26 13:09:54;;;;;;;6.90;1.30;;;;;;;26.14;41.03;99245.44;105218;1271;62107;-78
2022/07/26 13:13:03;;;;;;;6.60;1.30;;;;;;;26.33;41.49;99245.16;105353;1271;74854;-77